ADDS TAF Data INFO
IDs: Format: Raw Decoded Include METARs

Data at: 1936 UTC 17 Jul 2018

KAEG 171850Z 23004KT 10SM SCT050CU BKN075 28/14 A3031 RMK TCU DSNT ALQDS

KAEG 171720Z 1718/1818 18006KT P6SM FEW070
  FM180300 30008KT P6SM FEW100
  FM181000 VRB05KT P6SM FEW100
  FM181700 30008KT P6SM FEW100